Airport Name : Lannion

Other Name : Lannion

ICAO : LFRO

IATA : LAI

FAA :

Latitude : 48.754378

Longitude : -3.471656

Country : France

Local Date and Time : 20 Apr 2021 15:03

 

TAF (Terminal Aerodrome Forecast)

 

METAR (METeorological Aerodrome Report)

LFRO 201230Z AUTO 02010KT 9999 FEW039 BKN076 12/09 Q1016

LFRO 201200Z AUTO 02009KT 340V070 CAVOK 13/09 Q1016

LFRO 201130Z AUTO 02010KT 9999 FEW036 SCT150 14/09 Q1016

LFRO 201100Z AUTO 36007KT 320V030 CAVOK 14/09 Q1016

LFRO 201030Z AUTO 01007KT 330V030 CAVOK 13/09 Q1016

LFRO 201000Z AUTO 03004KT 330V090 CAVOK 13/09 Q1016

LFRO 200930Z AUTO 03005KT 350V060 CAVOK 13/09 Q1016

To Charter a Jet Click here.